New York City, New York
Current Conditions -  °F | °C
As of 3:51 AM on Saturday 20 Dec 2014 (Local Time) from KNYC Reporting Station
Overcast Overcast  
Wind Chill: 24°   Ceiling: 2600
Heat Index: 31°   Visibility: 10mi
Dew Point: 19°   Wind: 7mph
Humidity: 61%   Direction: 30°NNE
Pressure: 30.24"   Gusts: NA
Location:  40.71°N, 74.01°W
Report Text: KNYC 200851Z AUTO 03006KT 10SM OVC026 M01/M07 A3024 RMK AO2 SLP232 T10061072 53010 $
Loading
Personal Weather Stations






























Interactive Weather Map New forecast layout! Learn more

10-Day Weather Forecast

Advertisements
Track Severe Weather on mobile